sensor_id;sensor_type;location;lat;lon;timestamp;P1;durP1;ratioP1;P2;durP2;ratioP2
64375;SDS011;50700;55.416;12.952;2022-12-07T00:01:36;4.88;;;2.58;;
64375;SDS011;50700;55.416;12.952;2022-12-07T00:04:06;8.38;;;3.10;;
64375;SDS011;50700;55.416;12.952;2022-12-07T00:06:33;4.70;;;3.13;;
64375;SDS011;50700;55.416;12.952;2022-12-07T00:09:00;4.88;;;3.42;;
64375;SDS011;50700;55.416;12.952;2022-12-07T00:11:26;7.03;;;3.63;;
64375;SDS011;50700;55.416;12.952;2022-12-07T00:13:54;6.05;;;3.40;;
64375;SDS011;50700;55.416;12.952;2022-12-07T00:16:21;4.82;;;3.10;;
64375;SDS011;50700;55.416;12.952;2022-12-07T00:18:48;5.20;;;3.05;;
64375;SDS011;50700;55.416;12.952;2022-12-07T00:21:22;8.02;;;3.33;;
64375;SDS011;50700;55.416;12.952;2022-12-07T00:23:48;5.57;;;3.05;;
64375;SDS011;50700;55.416;12.952;2022-12-07T00:26:19;6.80;;;3.75;;
64375;SDS011;50700;55.416;12.952;2022-12-07T00:28:47;7.13;;;3.38;;
64375;SDS011;50700;55.416;12.952;2022-12-07T00:31:13;6.75;;;3.17;;
64375;SDS011;50700;55.416;12.952;2022-12-07T00:33:39;6.55;;;3.67;;
64375;SDS011;50700;55.416;12.952;2022-12-07T00:36:07;10.25;;;3.75;;
64375;SDS011;50700;55.416;12.952;2022-12-07T00:38:35;5.63;;;3.33;;
64375;SDS011;50700;55.416;12.952;2022-12-07T00:41:03;7.25;;;3.35;;
64375;SDS011;50700;55.416;12.952;2022-12-07T00:43:29;6.05;;;3.38;;
64375;SDS011;50700;55.416;12.952;2022-12-07T00:45:56;9.48;;;4.00;;
64375;SDS011;50700;55.416;12.952;2022-12-07T00:48:22;5.88;;;3.70;;
64375;SDS011;50700;55.416;12.952;2022-12-07T00:50:49;8.23;;;4.70;;
64375;SDS011;50700;55.416;12.952;2022-12-07T00:53:15;7.57;;;3.88;;
64375;SDS011;50700;55.416;12.952;2022-12-07T00:55:42;6.57;;;3.83;;
64375;SDS011;50700;55.416;12.952;2022-12-07T00:58:08;6.68;;;4.03;;
64375;SDS011;50700;55.416;12.952;2022-12-07T01:00:35;6.72;;;3.92;;
64375;SDS011;50700;55.416;12.952;2022-12-07T01:03:03;17.42;;;4.53;;
64375;SDS011;50700;55.416;12.952;2022-12-07T01:05:29;7.68;;;4.00;;
64375;SDS011;50700;55.416;12.952;2022-12-07T01:07:55;6.35;;;3.92;;
64375;SDS011;50700;55.416;12.952;2022-12-07T01:10:21;7.75;;;3.88;;
64375;SDS011;50700;55.416;12.952;2022-12-07T01:12:48;8.57;;;4.50;;
64375;SDS011;50700;55.416;12.952;2022-12-07T01:15:14;8.25;;;5.05;;
64375;SDS011;50700;55.416;12.952;2022-12-07T01:17:40;8.35;;;4.65;;
64375;SDS011;50700;55.416;12.952;2022-12-07T01:20:07;9.43;;;4.32;;
64375;SDS011;50700;55.416;12.952;2022-12-07T01:22:39;7.82;;;4.20;;
64375;SDS011;50700;55.416;12.952;2022-12-07T01:25:06;9.43;;;4.53;;
64375;SDS011;50700;55.416;12.952;2022-12-07T01:27:33;8.10;;;4.53;;
64375;SDS011;50700;55.416;12.952;2022-12-07T01:30:00;8.85;;;4.57;;
64375;SDS011;50700;55.416;12.952;2022-12-07T01:32:27;9.40;;;4.85;;
64375;SDS011;50700;55.416;12.952;2022-12-07T01:34:53;9.95;;;4.68;;
64375;SDS011;50700;55.416;12.952;2022-12-07T01:37:19;7.55;;;4.13;;
64375;SDS011;50700;55.416;12.952;2022-12-07T01:39:48;9.43;;;5.03;;
64375;SDS011;50700;55.416;12.952;2022-12-07T01:42:14;9.43;;;4.13;;
64375;SDS011;50700;55.416;12.952;2022-12-07T01:47:25;8.48;;;4.22;;
64375;SDS011;50700;55.416;12.952;2022-12-07T01:49:52;8.32;;;4.63;;
64375;SDS011;50700;55.416;12.952;2022-12-07T01:52:22;12.85;;;4.40;;
64375;SDS011;50700;55.416;12.952;2022-12-07T01:54:51;8.30;;;3.90;;
64375;SDS011;50700;55.416;12.952;2022-12-07T01:57:18;9.57;;;4.43;;
64375;SDS011;50700;55.416;12.952;2022-12-07T01:59:45;9.88;;;4.65;;
64375;SDS011;50700;55.416;12.952;2022-12-07T02:02:14;8.40;;;4.25;;
64375;SDS011;50700;55.416;12.952;2022-12-07T02:04:43;11.20;;;4.65;;
64375;SDS011;50700;55.416;12.952;2022-12-07T02:07:09;7.28;;;3.70;;
64375;SDS011;50700;55.416;12.952;2022-12-07T02:09:36;9.52;;;4.50;;
64375;SDS011;50700;55.416;12.952;2022-12-07T02:12:02;8.27;;;4.03;;
64375;SDS011;50700;55.416;12.952;2022-12-07T02:14:28;8.35;;;4.18;;
64375;SDS011;50700;55.416;12.952;2022-12-07T02:27:27;6.93;;;4.37;;
64375;SDS011;50700;55.416;12.952;2022-12-07T02:29:58;9.88;;;4.75;;
64375;SDS011;50700;55.416;12.952;2022-12-07T02:32:27;9.52;;;4.40;;
64375;SDS011;50700;55.416;12.952;2022-12-07T02:43:35;6.80;;;4.20;;
64375;SDS011;50700;55.416;12.952;2022-12-07T02:45:58;9.40;;;4.68;;
64375;SDS011;50700;55.416;12.952;2022-12-07T02:48:26;7.82;;;4.82;;
64375;SDS011;50700;55.416;12.952;2022-12-07T02:50:53;9.07;;;4.05;;
64375;SDS011;50700;55.416;12.952;2022-12-07T02:56:20;9.90;;;4.63;;
64375;SDS011;50700;55.416;12.952;2022-12-07T03:04:07;7.68;;;3.55;;
64375;SDS011;50700;55.416;12.952;2022-12-07T03:06:42;7.32;;;3.50;;
64375;SDS011;50700;55.416;12.952;2022-12-07T03:11:39;7.88;;;3.90;;
64375;SDS011;50700;55.416;12.952;2022-12-07T03:14:10;8.38;;;3.50;;
64375;SDS011;50700;55.416;12.952;2022-12-07T03:16:45;5.47;;;3.20;;
64375;SDS011;50700;55.416;12.952;2022-12-07T03:19:15;6.55;;;3.13;;
64375;SDS011;50700;55.416;12.952;2022-12-07T03:21:44;7.45;;;3.45;;
64375;SDS011;50700;55.416;12.952;2022-12-07T03:24:33;15.82;;;3.85;;
64375;SDS011;50700;55.416;12.952;2022-12-07T03:27:05;11.10;;;3.78;;
64375;SDS011;50700;55.416;12.952;2022-12-07T03:37:32;8.40;;;4.30;;
64375;SDS011;50700;55.416;12.952;2022-12-07T03:42:29;6.35;;;3.53;;
64375;SDS011;50700;55.416;12.952;2022-12-07T03:44:56;7.53;;;3.05;;
64375;SDS011;50700;55.416;12.952;2022-12-07T03:47:30;6.68;;;3.67;;
64375;SDS011;50700;55.416;12.952;2022-12-07T03:50:20;8.40;;;3.60;;
64375;SDS011;50700;55.416;12.952;2022-12-07T03:53:08;6.93;;;3.42;;
64375;SDS011;50700;55.416;12.952;2022-12-07T03:55:36;4.35;;;3.03;;
64375;SDS011;50700;55.416;12.952;2022-12-07T03:58:05;8.38;;;3.47;;
64375;SDS011;50700;55.416;12.952;2022-12-07T04:00:32;5.05;;;2.65;;
64375;SDS011;50700;55.416;12.952;2022-12-07T04:02:58;9.98;;;3.47;;
64375;SDS011;50700;55.416;12.952;2022-12-07T04:05:24;6.35;;;3.28;;
64375;SDS011;50700;55.416;12.952;2022-12-07T04:07:51;8.40;;;3.05;;
64375;SDS011;50700;55.416;12.952;2022-12-07T04:10:17;6.22;;;2.97;;
64375;SDS011;50700;55.416;12.952;2022-12-07T04:12:43;8.85;;;3.28;;
64375;SDS011;50700;55.416;12.952;2022-12-07T04:15:10;4.68;;;2.63;;
64375;SDS011;50700;55.416;12.952;2022-12-07T04:17:36;4.30;;;2.67;;
64375;SDS011;50700;55.416;12.952;2022-12-07T04:20:02;5.18;;;3.28;;
64375;SDS011;50700;55.416;12.952;2022-12-07T04:22:29;7.10;;;3.08;;
64375;SDS011;50700;55.416;12.952;2022-12-07T04:24:55;5.05;;;2.70;;
64375;SDS011;50700;55.416;12.952;2022-12-07T04:27:21;4.78;;;2.72;;
64375;SDS011;50700;55.416;12.952;2022-12-07T04:29:47;8.45;;;3.55;;
64375;SDS011;50700;55.416;12.952;2022-12-07T04:32:14;8.90;;;3.15;;
64375;SDS011;50700;55.416;12.952;2022-12-07T04:34:40;6.07;;;2.90;;
64375;SDS011;50700;55.416;12.952;2022-12-07T04:37:06;7.25;;;3.10;;
64375;SDS011;50700;55.416;12.952;2022-12-07T04:39:32;6.32;;;2.90;;
64375;SDS011;50700;55.416;12.952;2022-12-07T04:41:59;7.93;;;2.80;;
64375;SDS011;50700;55.416;12.952;2022-12-07T04:44:26;7.80;;;3.05;;
64375;SDS011;50700;55.416;12.952;2022-12-07T04:46:53;6.72;;;2.70;;
64375;SDS011;50700;55.416;12.952;2022-12-07T04:49:19;5.65;;;2.75;;
64375;SDS011;50700;55.416;12.952;2022-12-07T04:51:46;3.88;;;2.58;;
64375;SDS011;50700;55.416;12.952;2022-12-07T04:54:12;4.35;;;2.75;;
64375;SDS011;50700;55.416;12.952;2022-12-07T04:56:39;7.38;;;2.90;;
64375;SDS011;50700;55.416;12.952;2022-12-07T04:59:05;6.72;;;3.08;;
64375;SDS011;50700;55.416;12.952;2022-12-07T05:01:32;5.72;;;2.90;;
64375;SDS011;50700;55.416;12.952;2022-12-07T05:03:58;6.93;;;3.10;;
64375;SDS011;50700;55.416;12.952;2022-12-07T05:06:24;5.57;;;2.70;;
64375;SDS011;50700;55.416;12.952;2022-12-07T05:08:51;5.00;;;2.53;;
64375;SDS011;50700;55.416;12.952;2022-12-07T05:11:17;6.38;;;2.72;;
64375;SDS011;50700;55.416;12.952;2022-12-07T05:14:03;7.55;;;3.10;;
64375;SDS011;50700;55.416;12.952;2022-12-07T05:16:29;8.60;;;3.17;;
64375;SDS011;50700;55.416;12.952;2022-12-07T05:18:55;6.75;;;2.90;;
64375;SDS011;50700;55.416;12.952;2022-12-07T05:21:22;6.60;;;3.35;;
64375;SDS011;50700;55.416;12.952;2022-12-07T05:23:48;5.68;;;2.95;;
64375;SDS011;50700;55.416;12.952;2022-12-07T05:26:14;6.18;;;2.95;;
64375;SDS011;50700;55.416;12.952;2022-12-07T05:28:40;5.50;;;3.00;;
64375;SDS011;50700;55.416;12.952;2022-12-07T05:31:07;7.65;;;2.97;;
64375;SDS011;50700;55.416;12.952;2022-12-07T05:33:33;6.60;;;3.17;;
64375;SDS011;50700;55.416;12.952;2022-12-07T05:35:59;10.02;;;3.30;;
64375;SDS011;50700;55.416;12.952;2022-12-07T05:38:33;5.82;;;2.80;;
64375;SDS011;50700;55.416;12.952;2022-12-07T05:41:00;7.10;;;2.85;;
64375;SDS011;50700;55.416;12.952;2022-12-07T05:43:27;6.20;;;3.05;;
64375;SDS011;50700;55.416;12.952;2022-12-07T05:45:54;7.53;;;2.88;;
64375;SDS011;50700;55.416;12.952;2022-12-07T05:48:20;6.28;;;3.05;;
64375;SDS011;50700;55.416;12.952;2022-12-07T05:50:49;7.40;;;3.10;;
64375;SDS011;50700;55.416;12.952;2022-12-07T05:53:15;4.35;;;2.70;;
64375;SDS011;50700;55.416;12.952;2022-12-07T05:55:42;10.30;;;3.50;;
64375;SDS011;50700;55.416;12.952;2022-12-07T05:58:08;6.72;;;2.60;;
64375;SDS011;50700;55.416;12.952;2022-12-07T06:00:55;4.30;;;2.35;;
64375;SDS011;50700;55.416;12.952;2022-12-07T06:03:22;8.48;;;3.28;;
64375;SDS011;50700;55.416;12.952;2022-12-07T06:05:48;7.57;;;3.20;;
64375;SDS011;50700;55.416;12.952;2022-12-07T06:08:14;4.22;;;2.80;;
64375;SDS011;50700;55.416;12.952;2022-12-07T06:10:40;6.85;;;2.88;;
64375;SDS011;50700;55.416;12.952;2022-12-07T06:13:07;4.43;;;2.70;;
64375;SDS011;50700;55.416;12.952;2022-12-07T06:15:36;8.65;;;4.10;;
64375;SDS011;50700;55.416;12.952;2022-12-07T06:18:02;11.27;;;3.05;;
64375;SDS011;50700;55.416;12.952;2022-12-07T06:20:29;8.23;;;2.90;;
64375;SDS011;50700;55.416;12.952;2022-12-07T06:22:55;11.65;;;3.40;;
64375;SDS011;50700;55.416;12.952;2022-12-07T06:25:21;5.43;;;2.72;;
64375;SDS011;50700;55.416;12.952;2022-12-07T06:27:47;6.55;;;2.85;;
64375;SDS011;50700;55.416;12.952;2022-12-07T06:30:13;7.40;;;3.65;;
64375;SDS011;50700;55.416;12.952;2022-12-07T06:32:39;11.57;;;3.30;;
64375;SDS011;50700;55.416;12.952;2022-12-07T06:35:06;6.05;;;2.95;;
64375;SDS011;50700;55.416;12.952;2022-12-07T06:37:32;7.70;;;3.17;;
64375;SDS011;50700;55.416;12.952;2022-12-07T06:39:58;4.85;;;2.30;;
64375;SDS011;50700;55.416;12.952;2022-12-07T06:42:24;6.57;;;2.60;;
64375;SDS011;50700;55.416;12.952;2022-12-07T06:44:50;8.90;;;3.38;;
64375;SDS011;50700;55.416;12.952;2022-12-07T06:47:17;4.40;;;2.53;;
64375;SDS011;50700;55.416;12.952;2022-12-07T06:49:43;4.95;;;2.20;;
64375;SDS011;50700;55.416;12.952;2022-12-07T06:52:09;7.00;;;2.45;;
64375;SDS011;50700;55.416;12.952;2022-12-07T06:54:35;6.60;;;2.65;;
64375;SDS011;50700;55.416;12.952;2022-12-07T06:57:01;6.05;;;2.05;;
64375;SDS011;50700;55.416;12.952;2022-12-07T06:59:27;4.90;;;2.33;;
64375;SDS011;50700;55.416;12.952;2022-12-07T07:01:54;4.30;;;1.95;;
64375;SDS011;50700;55.416;12.952;2022-12-07T07:04:20;4.57;;;1.98;;
64375;SDS011;50700;55.416;12.952;2022-12-07T07:06:46;6.03;;;2.25;;
64375;SDS011;50700;55.416;12.952;2022-12-07T07:09:12;6.82;;;3.10;;
64375;SDS011;50700;55.416;12.952;2022-12-07T07:11:38;5.45;;;2.72;;
64375;SDS011;50700;55.416;12.952;2022-12-07T07:14:04;5.53;;;2.45;;
64375;SDS011;50700;55.416;12.952;2022-12-07T07:16:31;6.13;;;2.80;;
64375;SDS011;50700;55.416;12.952;2022-12-07T07:18:57;11.18;;;3.08;;
64375;SDS011;50700;55.416;12.952;2022-12-07T07:21:23;4.55;;;2.78;;
64375;SDS011;50700;55.416;12.952;2022-12-07T07:23:49;6.80;;;2.90;;
64375;SDS011;50700;55.416;12.952;2022-12-07T07:26:15;6.65;;;3.67;;
64375;SDS011;50700;55.416;12.952;2022-12-07T07:28:41;10.60;;;4.80;;
64375;SDS011;50700;55.416;12.952;2022-12-07T07:31:08;11.48;;;4.85;;
64375;SDS011;50700;55.416;12.952;2022-12-07T07:33:34;15.68;;;5.45;;
64375;SDS011;50700;55.416;12.952;2022-12-07T07:36:00;13.88;;;6.50;;
64375;SDS011;50700;55.416;12.952;2022-12-07T07:38:26;11.18;;;5.07;;
64375;SDS011;50700;55.416;12.952;2022-12-07T07:40:53;12.85;;;4.70;;
64375;SDS011;50700;55.416;12.952;2022-12-07T07:43:19;11.02;;;5.03;;
64375;SDS011;50700;55.416;12.952;2022-12-07T07:45:45;12.02;;;4.38;;
64375;SDS011;50700;55.416;12.952;2022-12-07T07:48:11;6.85;;;3.80;;
64375;SDS011;50700;55.416;12.952;2022-12-07T07:50:37;10.65;;;4.50;;
64375;SDS011;50700;55.416;12.952;2022-12-07T07:53:04;8.85;;;4.25;;
64375;SDS011;50700;55.416;12.952;2022-12-07T07:55:30;7.90;;;4.10;;
64375;SDS011;50700;55.416;12.952;2022-12-07T07:57:56;6.63;;;3.92;;
64375;SDS011;50700;55.416;12.952;2022-12-07T08:00:22;11.73;;;4.18;;
64375;SDS011;50700;55.416;12.952;2022-12-07T08:02:49;10.25;;;4.78;;
64375;SDS011;50700;55.416;12.952;2022-12-07T08:05:15;10.75;;;4.88;;
64375;SDS011;50700;55.416;12.952;2022-12-07T08:07:41;13.52;;;5.80;;
64375;SDS011;50700;55.416;12.952;2022-12-07T08:10:09;11.52;;;4.82;;
64375;SDS011;50700;55.416;12.952;2022-12-07T08:12:40;10.50;;;4.22;;
64375;SDS011;50700;55.416;12.952;2022-12-07T08:15:29;7.82;;;3.53;;
64375;SDS011;50700;55.416;12.952;2022-12-07T08:17:55;7.85;;;3.55;;
64375;SDS011;50700;55.416;12.952;2022-12-07T08:20:22;9.73;;;5.03;;
64375;SDS011;50700;55.416;12.952;2022-12-07T08:22:48;14.45;;;6.07;;
64375;SDS011;50700;55.416;12.952;2022-12-07T08:25:14;12.07;;;5.75;;
64375;SDS011;50700;55.416;12.952;2022-12-07T08:27:40;13.38;;;5.95;;
64375;SDS011;50700;55.416;12.952;2022-12-07T08:30:06;12.45;;;5.85;;
64375;SDS011;50700;55.416;12.952;2022-12-07T08:32:33;17.13;;;8.27;;
64375;SDS011;50700;55.416;12.952;2022-12-07T08:34:59;24.83;;;9.45;;
64375;SDS011;50700;55.416;12.952;2022-12-07T08:37:25;14.07;;;7.50;;
64375;SDS011;50700;55.416;12.952;2022-12-07T08:39:51;19.70;;;7.43;;
64375;SDS011;50700;55.416;12.952;2022-12-07T08:42:17;14.05;;;6.50;;
64375;SDS011;50700;55.416;12.952;2022-12-07T08:44:43;14.63;;;6.05;;
64375;SDS011;50700;55.416;12.952;2022-12-07T08:47:11;14.73;;;6.18;;
64375;SDS011;50700;55.416;12.952;2022-12-07T08:49:39;11.55;;;5.30;;
64375;SDS011;50700;55.416;12.952;2022-12-07T08:52:06;10.10;;;4.75;;
64375;SDS011;50700;55.416;12.952;2022-12-07T08:54:33;10.98;;;4.78;;
64375;SDS011;50700;55.416;12.952;2022-12-07T08:57:01;11.07;;;4.70;;
64375;SDS011;50700;55.416;12.952;2022-12-07T08:59:27;8.95;;;4.50;;
64375;SDS011;50700;55.416;12.952;2022-12-07T09:01:54;11.43;;;6.07;;
64375;SDS011;50700;55.416;12.952;2022-12-07T09:04:20;8.43;;;4.35;;
64375;SDS011;50700;55.416;12.952;2022-12-07T09:06:46;10.82;;;4.75;;
64375;SDS011;50700;55.416;12.952;2022-12-07T09:09:13;11.27;;;5.38;;
64375;SDS011;50700;55.416;12.952;2022-12-07T09:11:39;11.38;;;5.53;;
64375;SDS011;50700;55.416;12.952;2022-12-07T09:14:06;10.55;;;4.68;;
64375;SDS011;50700;55.416;12.952;2022-12-07T09:16:32;10.10;;;5.20;;
64375;SDS011;50700;55.416;12.952;2022-12-07T09:18:58;12.02;;;5.63;;
64375;SDS011;50700;55.416;12.952;2022-12-07T09:21:24;10.73;;;5.28;;
64375;SDS011;50700;55.416;12.952;2022-12-07T09:23:50;11.68;;;6.68;;
64375;SDS011;50700;55.416;12.952;2022-12-07T09:26:17;14.63;;;5.72;;
64375;SDS011;50700;55.416;12.952;2022-12-07T09:28:43;10.82;;;5.80;;
64375;SDS011;50700;55.416;12.952;2022-12-07T09:31:09;14.18;;;6.05;;
64375;SDS011;50700;55.416;12.952;2022-12-07T09:33:35;15.25;;;6.35;;
64375;SDS011;50700;55.416;12.952;2022-12-07T09:36:02;13.52;;;6.57;;
64375;SDS011;50700;55.416;12.952;2022-12-07T09:38:29;16.58;;;7.68;;
64375;SDS011;50700;55.416;12.952;2022-12-07T09:40:58;11.43;;;6.00;;
64375;SDS011;50700;55.416;12.952;2022-12-07T09:43:29;13.18;;;6.70;;
64375;SDS011;50700;55.416;12.952;2022-12-07T09:45:56;12.35;;;6.38;;
64375;SDS011;50700;55.416;12.952;2022-12-07T09:48:30;13.40;;;5.90;;
64375;SDS011;50700;55.416;12.952;2022-12-07T09:50:58;12.35;;;6.65;;
64375;SDS011;50700;55.416;12.952;2022-12-07T09:53:26;14.90;;;6.50;;
64375;SDS011;50700;55.416;12.952;2022-12-07T09:55:53;15.15;;;6.47;;
64375;SDS011;50700;55.416;12.952;2022-12-07T09:58:21;15.07;;;6.40;;
64375;SDS011;50700;55.416;12.952;2022-12-07T10:00:48;10.73;;;6.32;;
64375;SDS011;50700;55.416;12.952;2022-12-07T10:03:15;12.38;;;5.93;;
64375;SDS011;50700;55.416;12.952;2022-12-07T10:05:46;20.35;;;7.55;;
64375;SDS011;50700;55.416;12.952;2022-12-07T10:08:13;11.20;;;6.53;;
64375;SDS011;50700;55.416;12.952;2022-12-07T10:10:42;14.85;;;6.93;;
64375;SDS011;50700;55.416;12.952;2022-12-07T10:13:10;12.80;;;6.32;;
64375;SDS011;50700;55.416;12.952;2022-12-07T10:15:53;14.38;;;5.85;;
64375;SDS011;50700;55.416;12.952;2022-12-07T10:20:47;12.50;;;6.55;;
64375;SDS011;50700;55.416;12.952;2022-12-07T10:23:15;13.05;;;6.50;;
64375;SDS011;50700;55.416;12.952;2022-12-07T10:25:41;12.50;;;7.00;;
64375;SDS011;50700;55.416;12.952;2022-12-07T10:30:56;12.63;;;6.28;;
64375;SDS011;50700;55.416;12.952;2022-12-07T10:35:57;12.25;;;6.40;;
64375;SDS011;50700;55.416;12.952;2022-12-07T10:38:24;13.35;;;6.70;;
64375;SDS011;50700;55.416;12.952;2022-12-07T10:41:07;13.52;;;6.50;;
64375;SDS011;50700;55.416;12.952;2022-12-07T10:43:34;13.68;;;6.43;;
64375;SDS011;50700;55.416;12.952;2022-12-07T11:01:55;17.57;;;6.23;;
64375;SDS011;50700;55.416;12.952;2022-12-07T11:04:33;11.70;;;6.05;;
64375;SDS011;50700;55.416;12.952;2022-12-07T11:07:12;11.07;;;5.88;;
64375;SDS011;50700;55.416;12.952;2022-12-07T11:12:44;13.68;;;5.93;;
64375;SDS011;50700;55.416;12.952;2022-12-07T11:17:49;18.23;;;7.43;;
64375;SDS011;50700;55.416;12.952;2022-12-07T11:25:35;12.55;;;5.82;;
64375;SDS011;50700;55.416;12.952;2022-12-07T11:38:47;19.13;;;8.70;;
64375;SDS011;50700;55.416;12.952;2022-12-07T11:41:16;27.60;;;11.90;;
64375;SDS011;50700;55.416;12.952;2022-12-07T11:43:51;27.65;;;12.20;;
64375;SDS011;50700;55.416;12.952;2022-12-07T11:46:18;31.42;;;11.65;;
64375;SDS011;50700;55.416;12.952;2022-12-07T11:48:50;27.05;;;10.68;;
64375;SDS011;50700;55.416;12.952;2022-12-07T11:53:50;21.02;;;8.80;;
64375;SDS011;50700;55.416;12.952;2022-12-07T11:56:21;19.55;;;9.35;;
64375;SDS011;50700;55.416;12.952;2022-12-07T11:58:49;26.88;;;11.38;;
64375;SDS011;50700;55.416;12.952;2022-12-07T12:03:53;28.23;;;12.77;;
64375;SDS011;50700;55.416;12.952;2022-12-07T12:06:23;27.73;;;12.38;;
64375;SDS011;50700;55.416;12.952;2022-12-07T12:11:52;22.20;;;9.68;;
64375;SDS011;50700;55.416;12.952;2022-12-07T12:22:23;18.48;;;8.18;;
64375;SDS011;50700;55.416;12.952;2022-12-07T12:24:52;12.85;;;6.88;;
64375;SDS011;50700;55.416;12.952;2022-12-07T12:27:30;13.88;;;6.20;;
64375;SDS011;50700;55.416;12.952;2022-12-07T12:29:59;11.45;;;5.45;;
64375;SDS011;50700;55.416;12.952;2022-12-07T12:32:38;9.45;;;4.32;;
64375;SDS011;50700;55.416;12.952;2022-12-07T12:37:51;9.35;;;4.28;;
64375;SDS011;50700;55.416;12.952;2022-12-07T12:45:21;8.40;;;4.43;;
64375;SDS011;50700;55.416;12.952;2022-12-07T12:47:54;7.30;;;4.55;;
64375;SDS011;50700;55.416;12.952;2022-12-07T12:50:30;5.88;;;3.67;;
64375;SDS011;50700;55.416;12.952;2022-12-07T12:53:05;8.98;;;4.10;;
64375;SDS011;50700;55.416;12.952;2022-12-07T13:00:46;7.93;;;3.80;;
64375;SDS011;50700;55.416;12.952;2022-12-07T13:03:28;12.55;;;4.30;;
64375;SDS011;50700;55.416;12.952;2022-12-07T13:08:41;5.97;;;3.70;;
64375;SDS011;50700;55.416;12.952;2022-12-07T13:11:25;7.40;;;3.97;;
64375;SDS011;50700;55.416;12.952;2022-12-07T13:13:57;9.73;;;3.97;;
64375;SDS011;50700;55.416;12.952;2022-12-07T13:16:40;8.35;;;3.80;;
64375;SDS011;50700;55.416;12.952;2022-12-07T13:19:27;6.75;;;3.97;;
64375;SDS011;50700;55.416;12.952;2022-12-07T13:21:52;10.27;;;4.40;;
64375;SDS011;50700;55.416;12.952;2022-12-07T13:24:18;12.60;;;4.13;;
64375;SDS011;50700;55.416;12.952;2022-12-07T13:26:45;8.88;;;4.13;;
64375;SDS011;50700;55.416;12.952;2022-12-07T13:29:21;16.20;;;5.00;;
64375;SDS011;50700;55.416;12.952;2022-12-07T13:31:54;11.57;;;5.32;;
64375;SDS011;50700;55.416;12.952;2022-12-07T13:34:32;9.00;;;5.35;;
64375;SDS011;50700;55.416;12.952;2022-12-07T13:37:00;7.75;;;3.75;;
64375;SDS011;50700;55.416;12.952;2022-12-07T13:39:26;7.43;;;4.18;;
64375;SDS011;50700;55.416;12.952;2022-12-07T13:41:57;8.93;;;4.10;;
64375;SDS011;50700;55.416;12.952;2022-12-07T13:44:24;7.10;;;3.95;;
64375;SDS011;50700;55.416;12.952;2022-12-07T13:47:04;14.85;;;4.30;;
64375;SDS011;50700;55.416;12.952;2022-12-07T13:49:36;8.85;;;4.50;;
64375;SDS011;50700;55.416;12.952;2022-12-07T13:52:22;11.32;;;4.68;;
64375;SDS011;50700;55.416;12.952;2022-12-07T13:54:56;6.97;;;4.30;;
64375;SDS011;50700;55.416;12.952;2022-12-07T13:57:26;9.32;;;4.38;;
64375;SDS011;50700;55.416;12.952;2022-12-07T13:59:53;10.27;;;4.28;;
64375;SDS011;50700;55.416;12.952;2022-12-07T14:02:25;8.30;;;4.43;;
64375;SDS011;50700;55.416;12.952;2022-12-07T14:04:51;10.15;;;4.78;;
64375;SDS011;50700;55.416;12.952;2022-12-07T14:07:22;7.40;;;4.68;;
64375;SDS011;50700;55.416;12.952;2022-12-07T14:12:21;10.93;;;4.68;;
64375;SDS011;50700;55.416;12.952;2022-12-07T14:14:48;14.57;;;6.13;;
64375;SDS011;50700;55.416;12.952;2022-12-07T14:17:18;10.90;;;5.28;;
64375;SDS011;50700;55.416;12.952;2022-12-07T14:19:57;11.07;;;4.50;;
64375;SDS011;50700;55.416;12.952;2022-12-07T14:22:29;8.20;;;4.13;;
64375;SDS011;50700;55.416;12.952;2022-12-07T14:25:32;9.18;;;4.15;;
64375;SDS011;50700;55.416;12.952;2022-12-07T14:27:58;8.63;;;3.60;;
64375;SDS011;50700;55.416;12.952;2022-12-07T14:30:27;7.30;;;3.58;;
64375;SDS011;50700;55.416;12.952;2022-12-07T14:32:55;8.93;;;4.15;;
64375;SDS011;50700;55.416;12.952;2022-12-07T14:35:22;8.10;;;3.95;;
64375;SDS011;50700;55.416;12.952;2022-12-07T14:37:49;7.78;;;3.42;;
64375;SDS011;50700;55.416;12.952;2022-12-07T14:40:16;5.45;;;3.40;;
64375;SDS011;50700;55.416;12.952;2022-12-07T14:42:44;8.45;;;3.80;;
64375;SDS011;50700;55.416;12.952;2022-12-07T14:45:15;7.30;;;3.65;;
64375;SDS011;50700;55.416;12.952;2022-12-07T14:47:42;9.20;;;3.70;;
64375;SDS011;50700;55.416;12.952;2022-12-07T14:50:11;6.68;;;3.55;;
64375;SDS011;50700;55.416;12.952;2022-12-07T14:52:37;8.43;;;3.63;;
64375;SDS011;50700;55.416;12.952;2022-12-07T14:55:05;6.20;;;3.13;;
64375;SDS011;50700;55.416;12.952;2022-12-07T14:57:31;8.52;;;4.38;;
64375;SDS011;50700;55.416;12.952;2022-12-07T14:59:57;4.82;;;3.17;;
64375;SDS011;50700;55.416;12.952;2022-12-07T15:02:23;5.90;;;3.33;;
64375;SDS011;50700;55.416;12.952;2022-12-07T15:04:49;5.57;;;3.17;;
64375;SDS011;50700;55.416;12.952;2022-12-07T15:07:19;3.38;;;2.38;;
64375;SDS011;50700;55.416;12.952;2022-12-07T15:09:46;4.07;;;2.10;;
64375;SDS011;50700;55.416;12.952;2022-12-07T15:12:12;6.88;;;2.90;;
64375;SDS011;50700;55.416;12.952;2022-12-07T15:14:38;3.78;;;2.35;;
64375;SDS011;50700;55.416;12.952;2022-12-07T15:17:05;4.68;;;2.25;;
64375;SDS011;50700;55.416;12.952;2022-12-07T15:19:31;2.40;;;1.90;;
64375;SDS011;50700;55.416;12.952;2022-12-07T15:21:57;2.85;;;2.05;;
64375;SDS011;50700;55.416;12.952;2022-12-07T15:24:25;3.10;;;1.83;;
64375;SDS011;50700;55.416;12.952;2022-12-07T15:26:51;4.00;;;2.05;;
64375;SDS011;50700;55.416;12.952;2022-12-07T15:29:17;3.42;;;2.05;;
64375;SDS011;50700;55.416;12.952;2022-12-07T15:31:44;4.35;;;2.40;;
64375;SDS011;50700;55.416;12.952;2022-12-07T15:34:10;4.32;;;2.83;;
64375;SDS011;50700;55.416;12.952;2022-12-07T15:36:37;2.40;;;1.90;;
64375;SDS011;50700;55.416;12.952;2022-12-07T15:39:03;4.32;;;2.30;;
64375;SDS011;50700;55.416;12.952;2022-12-07T15:41:29;3.92;;;2.20;;
64375;SDS011;50700;55.416;12.952;2022-12-07T15:43:55;4.07;;;2.33;;
64375;SDS011;50700;55.416;12.952;2022-12-07T15:46:40;3.55;;;2.38;;
64375;SDS011;50700;55.416;12.952;2022-12-07T15:49:14;3.35;;;2.30;;
64375;SDS011;50700;55.416;12.952;2022-12-07T15:51:41;4.03;;;2.10;;
64375;SDS011;50700;55.416;12.952;2022-12-07T15:54:27;5.35;;;2.13;;
64375;SDS011;50700;55.416;12.952;2022-12-07T15:56:53;3.22;;;1.63;;
64375;SDS011;50700;55.416;12.952;2022-12-07T15:59:20;5.28;;;2.17;;
64375;SDS011;50700;55.416;12.952;2022-12-07T16:01:46;3.38;;;1.90;;
64375;SDS011;50700;55.416;12.952;2022-12-07T16:04:12;3.53;;;1.98;;
64375;SDS011;50700;55.416;12.952;2022-12-07T16:06:39;3.28;;;2.13;;
64375;SDS011;50700;55.416;12.952;2022-12-07T16:09:05;3.17;;;1.88;;
64375;SDS011;50700;55.416;12.952;2022-12-07T16:11:31;4.30;;;2.53;;
64375;SDS011;50700;55.416;12.952;2022-12-07T16:13:58;4.50;;;2.42;;
64375;SDS011;50700;55.416;12.952;2022-12-07T16:16:24;6.28;;;2.95;;
64375;SDS011;50700;55.416;12.952;2022-12-07T16:18:51;4.80;;;2.40;;
64375;SDS011;50700;55.416;12.952;2022-12-07T16:21:17;4.55;;;2.47;;
64375;SDS011;50700;55.416;12.952;2022-12-07T16:23:43;6.50;;;3.08;;
64375;SDS011;50700;55.416;12.952;2022-12-07T16:26:13;6.30;;;2.80;;
64375;SDS011;50700;55.416;12.952;2022-12-07T16:28:40;3.10;;;2.20;;
64375;SDS011;50700;55.416;12.952;2022-12-07T16:31:08;6.07;;;2.20;;
64375;SDS011;50700;55.416;12.952;2022-12-07T16:33:35;7.57;;;3.17;;
64375;SDS011;50700;55.416;12.952;2022-12-07T16:36:02;12.45;;;4.03;;
64375;SDS011;50700;55.416;12.952;2022-12-07T16:38:28;10.77;;;3.38;;
64375;SDS011;50700;55.416;12.952;2022-12-07T16:40:54;3.17;;;2.38;;